Time;durP1;ratioP1;P1;durP2;ratioP2;P2;SDS_P1;SDS_P2;PMS_P1;PMS_P2;Temp;Humidity;BMP_temperature;BMP_pressure;BME280_temperature;BME280_humidity;BME280_pressure;Samples;Min_cycle;Max_cycle;Signal;HPM_P1;HPM_P2
2021/09/18 00:05:27;;;;;;;7.37;6.77;;;;;;;14.85;100.00;99816.28;20996852;28;20255;-67
2021/09/18 00:15:31;;;;;;;7.40;6.80;;;;;;;14.86;100.00;99804.53;20996088;28;20227;-68
2021/09/18 00:25:34;;;;;;;8.73;8.13;;;;;;;14.83;100.00;99807.50;20996174;28;20283;-68
2021/09/18 00:35:38;;;;;;;8.50;7.80;;;;;;;14.78;100.00;99799.84;20995647;28;20580;-68
2021/09/18 00:45:40;;;;;;;7.83;7.20;;;;;;;14.72;100.00;99798.59;20995434;28;20584;-68
2021/09/18 00:55:44;;;;;;;7.03;6.53;;;;;;;14.66;100.00;99804.47;20994120;28;20233;-68
2021/09/18 01:05:46;;;;;;;9.20;8.40;;;;;;;14.66;100.00;99799.13;20993390;28;20246;-68
2021/09/18 01:15:52;;;;;;;9.47;8.67;;;;;;;14.63;100.00;99794.00;20992714;28;20799;-68
2021/09/18 01:25:56;;;;;;;9.60;8.80;;;;;;;14.60;100.00;99788.94;20991764;28;20294;-68
2021/09/18 01:35:58;;;;;;;12.00;10.90;;;;;;;14.48;100.00;99784.66;20989996;28;20252;-67
2021/09/18 01:46:02;;;;;;;9.60;8.70;;;;;;;14.47;100.00;99787.47;20990602;28;20237;-68
2021/09/18 01:56:05;;;;;;;10.07;9.23;;;;;;;14.47;100.00;99763.31;20974193;28;20239;-68
2021/09/18 02:06:09;;;;;;;11.33;10.43;;;;;;;14.41;100.00;99765.53;20985363;28;20707;-68
2021/09/18 02:16:11;;;;;;;9.43;8.63;;;;;;;14.34;100.00;99752.78;20988500;28;20226;-68
2021/09/18 02:26:15;;;;;;;9.80;8.87;;;;;;;14.25;100.00;99745.56;20987424;28;20260;-68
2021/09/18 02:36:17;;;;;;;10.33;9.33;;;;;;;14.22;100.00;99744.00;20987119;28;20218;-67
2021/09/18 02:46:21;;;;;;;9.40;8.60;;;;;;;14.37;100.00;99745.28;20986905;28;20257;-68
2021/09/18 02:56:23;;;;;;;8.10;7.40;;;;;;;14.54;100.00;99742.97;20986300;28;20230;-68
2021/09/18 03:06:27;;;;;;;9.13;8.43;;;;;;;14.65;100.00;99749.06;20984644;28;20253;-68
2021/09/18 03:16:29;;;;;;;7.90;7.30;;;;;;;14.74;100.00;99740.19;20985304;28;20223;-67
2021/09/18 03:26:33;;;;;;;7.60;6.90;;;;;;;14.77;100.00;99734.53;20984969;28;20316;-68
2021/09/18 03:36:36;;;;;;;6.77;6.27;;;;;;;14.82;100.00;99736.81;20984764;28;20230;-68
2021/09/18 03:46:40;;;;;;;7.37;6.80;;;;;;;14.88;100.00;99740.75;20984702;28;20569;-68
2021/09/18 03:56:42;;;;;;;6.33;5.93;;;;;;;14.94;100.00;99737.53;20986447;28;20234;-68
2021/09/18 04:06:47;;;;;;;5.77;5.37;;;;;;;14.95;100.00;99732.03;20998608;28;20227;-68
2021/09/18 04:16:50;;;;;;;5.70;5.30;;;;;;;14.96;100.00;99738.25;20997381;28;20233;-68
2021/09/18 04:26:54;;;;;;;6.87;6.37;;;;;;;14.93;100.00;99733.16;20996921;28;20316;-68
2021/09/18 04:36:57;;;;;;;6.00;4.83;;;;;;;14.68;100.00;99729.16;20996310;28;20254;-68
2021/09/18 04:47:03;;;;;;;4.93;4.47;;;;;;;14.15;100.00;99741.97;20995422;28;20310;-68
2021/09/18 04:57:05;;;;;;;5.90;5.40;;;;;;;13.92;100.00;99755.56;20994343;28;20687;-68
2021/09/18 05:07:09;;;;;;;8.90;8.00;;;;;;;13.74;100.00;99773.25;20993555;28;20708;-68
2021/09/18 05:17:11;;;;;;;7.67;6.87;;;;;;;13.62;100.00;99777.00;20992560;28;20227;-68
2021/09/18 05:27:15;;;;;;;6.60;6.00;;;;;;;13.50;100.00;99784.25;20991286;28;20222;-68
2021/09/18 05:37:17;;;;;;;7.30;6.63;;;;;;;13.34;100.00;99784.69;20990973;28;20307;-69
2021/09/18 05:47:21;;;;;;;8.57;7.77;;;;;;;13.02;100.00;99802.56;20990007;28;20227;-68
2021/09/18 05:57:23;;;;;;;7.23;6.63;;;;;;;12.90;100.00;99812.47;20989225;28;20242;-68
2021/09/18 06:07:27;;;;;;;6.70;6.10;;;;;;;12.79;100.00;99808.97;20988527;28;20218;-68
2021/09/18 06:17:29;;;;;;;5.77;5.37;;;;;;;12.73;100.00;99820.16;20988237;28;20264;-67
2021/09/18 06:27:33;;;;;;;5.93;5.43;;;;;;;12.58;100.00;99841.84;20987067;28;20221;-68
2021/09/18 06:37:41;;;;;;;5.73;5.23;;;;;;;12.50;100.00;99836.25;20986899;28;20241;-68
2021/09/18 06:47:45;;;;;;;6.37;5.77;;;;;;;12.69;100.00;99840.97;20987107;28;20585;-68
2021/09/18 06:57:47;;;;;;;5.20;4.80;;;;;;;12.79;100.00;99838.44;20986397;28;20313;-67
2021/09/18 07:07:51;;;;;;;6.27;5.77;;;;;;;12.63;100.00;99852.19;20977861;28;20266;-65
2021/09/18 07:17:55;;;;;;;6.03;5.53;;;;;;;12.76;100.00;99862.75;20948083;28;20717;-69
2021/09/18 07:27:59;;;;;;;4.40;4.10;;;;;;;12.62;100.00;99878.09;20982144;28;20246;-69
2021/09/18 07:38:04;;;;;;;2.70;2.60;;;;;;;13.16;100.00;99879.16;20994492;28;20234;-69
2021/09/18 07:48:08;;;;;;;2.60;2.40;;;;;;;13.39;100.00;99893.34;20998389;28;20224;-69
2021/09/18 08:09:42;;;;;;;3.70;3.40;;;;;;;11.93;100.00;99894.31;20881214;22;20255;-71
2021/09/18 08:19:49;;;;;;;4.23;3.83;;;;;;;11.90;100.00;99901.59;20722353;28;20780;-72
2021/09/18 08:29:55;;;;;;;5.93;5.43;;;;;;;11.86;100.00;99913.50;20778043;28;20235;-69
2021/09/18 08:39:58;;;;;;;5.67;5.27;;;;;;;11.84;100.00;99919.91;20762474;28;20258;-69
2021/09/18 08:50:21;;;;;;;5.90;5.50;;;;;;;12.18;100.00;99921.75;20753526;28;20240;-68
2021/09/18 09:00:58;;;;;;;7.07;6.47;;;;;;;12.21;100.00;99931.31;20789980;28;20244;-66
2021/09/18 09:11:24;;;;;;;5.50;5.20;;;;;;;12.34;100.00;99932.09;20789666;28;20261;-67
2021/09/18 09:21:36;;;;;;;3.70;3.40;;;;;;;12.46;100.00;99939.16;20770543;28;20232;-70
2021/09/18 09:31:46;;;;;;;1.90;1.80;;;;;;;13.03;100.00;99943.56;20717910;28;20326;-70
2021/09/18 09:41:57;;;;;;;1.23;1.23;;;;;;;12.75;100.00;99946.72;20762618;28;20241;-67
2021/09/18 09:52:30;;;;;;;2.00;1.23;;;;;;;12.45;100.00;99950.81;20742861;28;20275;-67
2021/09/18 10:02:44;;;;;;;1.40;1.23;;;;;;;12.81;100.00;99959.63;20729455;28;20239;-67
2021/09/18 10:12:49;;;;;;;1.10;1.10;;;;;;;12.51;100.00;99966.44;20722332;28;20251;-68
2021/09/18 10:33:33;;;;;;;1.27;0.90;;;;;;;12.91;100.00;99964.16;20724577;28;20369;-65
2021/09/18 10:43:38;;;;;;;0.90;0.60;;;;;;;12.83;100.00;99974.59;20764567;28;20229;-65
2021/09/18 10:54:05;;;;;;;1.57;0.80;;;;;;;12.89;100.00;99981.31;20754453;28;20234;-66
2021/09/18 11:04:40;;;;;;;0.50;0.50;;;;;;;13.79;100.00;99977.53;20961903;27;20311;-66
2021/09/18 11:15:03;;;;;;;0.80;0.80;;;;;;;13.58;100.00;99995.38;21089915;27;21125;-67
2021/09/18 11:25:32;;;;;;;0.67;0.60;;;;;;;13.11;100.00;99994.69;20996603;27;20567;-70
2021/09/18 11:35:55;;;;;;;0.60;0.60;;;;;;;12.92;100.00;100002.50;21035459;27;20581;-65
2021/09/18 11:46:26;;;;;;;1.37;0.70;;;;;;;12.84;100.00;100005.75;21036266;27;21210;-67
2021/09/18 11:56:45;;;;;;;0.80;0.80;;;;;;;12.93;100.00;99999.66;20953731;27;21322;-68
2021/09/18 12:07:04;;;;;;;0.60;0.60;;;;;;;11.84;100.00;100011.66;20991555;27;20679;-67
2021/09/18 12:17:23;;;;;;;0.80;0.60;;;;;;;11.39;100.00;100007.84;20974361;27;20316;-70
2021/09/18 12:27:40;;;;;;;0.73;0.73;;;;;;;11.36;100.00;100015.22;20955705;27;20586;-66
2021/09/18 12:38:01;;;;;;;1.43;0.90;;;;;;;10.88;100.00;100031.13;20992816;27;20566;-67
2021/09/18 12:48:21;;;;;;;1.53;1.50;;;;;;;10.40;100.00;100038.03;20962870;27;20576;-70
2021/09/18 12:58:41;;;;;;;2.23;1.90;;;;;;;10.04;100.00;100036.00;21120530;27;20584;-70
2021/09/18 13:09:01;;;;;;;1.67;1.57;;;;;;;10.03;100.00;100034.28;20827015;27;20717;-69
2021/09/18 13:19:21;;;;;;;2.67;2.30;;;;;;;9.93;100.00;100039.38;21127532;27;20582;-74
2021/09/18 13:29:52;;;;;;;2.60;1.27;;;;;;;9.68;100.00;100048.13;21003062;27;20654;-74
2021/09/18 13:40:15;;;;;;;2.07;1.30;;;;;;;9.62;100.00;100063.66;20998472;27;20561;-72
2021/09/18 13:50:37;;;;;;;2.33;2.13;;;;;;;9.71;100.00;100045.25;20913998;28;20637;-70
2021/09/18 14:01:02;;;;;;;2.70;2.50;;;;;;;9.68;100.00;100039.25;21116520;27;20954;-73
2021/09/18 14:11:28;;;;;;;4.30;2.67;;;;;;;9.70;100.00;100046.22;20927109;27;21070;-77
2021/09/18 14:21:54;;;;;;;4.03;2.60;;;;;;;9.65;100.00;100035.03;20982694;27;20687;-70
2021/09/18 14:32:14;;;;;;;3.93;2.63;;;;;;;9.63;100.00;100047.56;20999574;27;20698;-72
2021/09/18 14:42:39;;;;;;;4.40;2.13;;;;;;;9.48;100.00;100061.88;20960787;27;20969;-71
2021/09/18 14:53:06;;;;;;;1.87;1.53;;;;;;;9.42;100.00;100062.25;21154279;27;21237;-76
2021/09/18 15:03:26;;;;;;;1.40;1.30;;;;;;;9.29;100.00;100069.34;20994503;27;20570;-72
2021/09/18 15:13:46;;;;;;;5.33;1.47;;;;;;;9.22;100.00;100073.31;20983330;27;20574;-75
2021/09/18 15:24:06;;;;;;;1.00;1.00;;;;;;;8.95;100.00;100065.22;20987778;27;20630;-73
2021/09/18 15:34:27;;;;;;;0.77;0.77;;;;;;;8.81;100.00;100281.63;20880375;27;20574;-71
2021/09/18 15:44:47;;;;;;;0.93;0.93;;;;;;;8.63;100.00;100256.03;21162165;27;20631;-74
2021/09/18 15:55:16;;;;;;;1.33;1.23;;;;;;;8.44;100.00;100226.13;20993525;28;20529;-77
2021/09/18 16:05:41;;;;;;;0.50;0.50;;;;;;;7.71;100.00;100301.91;21024540;27;20614;-73
2021/09/18 16:16:07;;;;;;;3.13;0.73;;;;;;;7.36;100.00;100286.00;20974923;27;20311;-72
2021/09/18 16:26:30;;;;;;;0.70;0.70;;;;;;;7.28;100.00;100309.41;20917040;27;20822;-69
2021/09/18 16:36:49;;;;;;;1.63;0.93;;;;;;;7.17;100.00;100317.91;21023267;27;21551;-73
2021/09/18 16:47:10;;;;;;;2.83;1.20;;;;;;;7.14;100.00;100335.78;21000572;27;21150;-69
2021/09/18 16:57:33;;;;;;;1.67;1.50;;;;;;;7.03;100.00;100349.59;20986164;27;20579;-74
2021/09/18 17:08:05;;;;;;;2.27;2.07;;;;;;;6.96;100.00;100340.22;20928207;27;20583;-74
2021/09/18 17:18:23;;;;;;;2.63;2.10;;;;;;;6.85;100.00;100295.66;20880025;27;1651659;-69
2021/09/18 17:28:50;;;;;;;1.80;1.57;;;;;;;6.74;100.00;100271.47;20924176;27;21023;-69
2021/09/18 17:39:07;;;;;;;1.70;1.60;;;;;;;6.75;100.00;100389.88;20981189;27;21026;-72
2021/09/18 17:49:29;;;;;;;2.03;1.83;;;;;;;6.85;100.00;100438.03;21092682;27;21289;-68
2021/09/18 17:59:49;;;;;;;3.60;3.03;;;;;;;6.88;100.00;100474.16;20979843;27;20995;-70
2021/09/18 18:10:15;;;;;;;3.57;2.83;;;;;;;6.91;100.00;100501.38;21089958;27;20599;-72
2021/09/18 18:20:50;;;;;;;3.23;2.70;;;;;;;6.93;100.00;100509.28;20976378;27;20623;-71
2021/09/18 18:31:13;;;;;;;4.07;3.10;;;;;;;7.02;100.00;100546.00;20947768;27;20600;-78
2021/09/18 18:41:31;;;;;;;5.73;4.07;;;;;;;7.07;100.00;100567.88;21021720;27;20683;-71
2021/09/18 18:51:41;;;;;;;5.13;4.07;;;;;;;7.10;100.00;100575.72;21042569;28;20237;-69
2021/09/18 19:01:46;;;;;;;7.97;5.00;;;;;;;7.17;100.00;100593.91;20916433;28;20238;-68
2021/09/18 19:11:51;;;;;;;9.40;5.83;;;;;;;7.20;100.00;100593.78;20932258;28;20249;-66
2021/09/18 19:21:56;;;;;;;9.17;5.70;;;;;;;7.23;100.00;100598.09;20868759;28;20589;-67
2021/09/18 19:32:01;;;;;;;9.37;6.23;;;;;;;7.22;100.00;100586.63;20927416;28;21026;-72
2021/09/18 19:42:10;;;;;;;9.50;6.20;;;;;;;7.18;100.00;100566.44;20875906;28;20314;-71
2021/09/18 19:52:21;;;;;;;12.03;7.57;;;;;;;7.08;100.00;100532.47;20820972;28;20229;-69
2021/09/18 20:02:50;;;;;;;14.20;8.63;;;;;;;7.19;100.00;100527.50;20813829;28;20225;-68
2021/09/18 20:13:06;;;;;;;17.60;10.43;;;;;;;7.23;100.00;100168.16;20889897;28;20231;-67
2021/09/18 20:23:15;;;;;;;19.73;10.70;;;;;;;7.17;100.00;100160.50;20964393;28;20298;-72
2021/09/18 20:33:17;;;;;;;18.43;9.33;;;;;;;7.28;100.00;100168.75;20880619;28;20227;-72
2021/09/18 20:43:22;;;;;;;22.80;11.90;;;;;;;7.24;100.00;100175.16;20898483;28;20636;-68
2021/09/18 20:53:24;;;;;;;21.73;10.87;;;;;;;7.27;100.00;100169.69;20873615;28;20309;-68
2021/09/18 21:13:51;;;;;;;24.30;12.37;;;;;;;7.14;100.00;100152.69;20873428;28;20225;-72
2021/09/18 21:23:56;;;;;;;23.23;11.00;;;;;;;7.26;100.00;100167.09;20876190;28;20253;-70
2021/09/18 21:33:58;;;;;;;26.37;12.93;;;;;;;7.24;100.00;100161.91;20877572;28;20235;-72
2021/09/18 21:44:02;;;;;;;24.00;13.10;;;;;;;7.17;100.00;100168.47;20891474;28;20238;-68
2021/09/18 21:54:04;;;;;;;25.90;13.83;;;;;;;7.13;100.00;100159.78;20888365;28;20314;-74
2021/09/18 22:04:09;;;;;;;27.17;13.20;;;;;;;7.26;100.00;100189.19;20899336;28;20193;-72
2021/09/18 22:14:12;;;;;;;24.90;12.97;;;;;;;7.27;100.00;100180.28;20893651;28;20251;-71
2021/09/18 22:24:16;;;;;;;26.43;12.67;;;;;;;7.25;100.00;100171.56;20872893;28;20677;-72
2021/09/18 22:34:18;;;;;;;18.27;10.53;;;;;;;7.24;100.00;100176.00;20895336;28;20241;-71
2021/09/18 22:44:23;;;;;;;27.50;12.83;;;;;;;7.24;100.00;100164.56;20873571;28;20188;-73
2021/09/18 22:54:25;;;;;;;25.17;12.43;;;;;;;7.30;100.00;100168.66;20895524;28;21086;-73
2021/09/18 23:04:30;;;;;;;21.60;11.70;;;;;;;7.33;100.00;100174.69;20877691;28;20593;-73
2021/09/18 23:14:33;;;;;;;23.70;12.10;;;;;;;7.32;100.00;100172.97;20890342;28;20232;-73
2021/09/18 23:24:37;;;;;;;20.07;10.87;;;;;;;7.32;100.00;100164.13;20894767;28;20812;-72
2021/09/18 23:34:40;;;;;;;20.60;11.40;;;;;;;7.33;100.00;100161.41;20897094;28;20316;-72
2021/09/18 23:44:43;;;;;;;23.53;11.23;;;;;;;7.33;100.00;100169.38;20906936;28;20195;-73
2021/09/18 23:54:46;;;;;;;21.63;11.77;;;;;;;7.33;100.00;100169.38;20888052;28;20651;-72
